sensor_id;sensor_type;location;lat;lon;timestamp;temperature;humidity
15926;DHT22;8062;53.882;10.642;2022-10-17T00:00:17;9.30;99.90
15926;DHT22;8062;53.882;10.642;2022-10-17T00:01:18;9.30;99.90
15926;DHT22;8062;53.882;10.642;2022-10-17T00:02:19;9.30;99.90
15926;DHT22;8062;53.882;10.642;2022-10-17T00:03:20;9.30;99.90
15926;DHT22;8062;53.882;10.642;2022-10-17T00:04:21;9.30;99.90
15926;DHT22;8062;53.882;10.642;2022-10-17T00:05:23;9.30;99.90
15926;DHT22;8062;53.882;10.642;2022-10-17T00:06:24;9.30;99.90
15926;DHT22;8062;53.882;10.642;2022-10-17T00:07:25;9.30;99.90
15926;DHT22;8062;53.882;10.642;2022-10-17T00:08:26;9.30;99.90
15926;DHT22;8062;53.882;10.642;2022-10-17T00:09:27;9.30;99.90
15926;DHT22;8062;53.882;10.642;2022-10-17T00:10:29;9.30;99.90
15926;DHT22;8062;53.882;10.642;2022-10-17T00:11:30;9.30;99.90
15926;DHT22;8062;53.882;10.642;2022-10-17T00:12:31;9.30;99.90
15926;DHT22;8062;53.882;10.642;2022-10-17T00:13:32;9.30;99.90
15926;DHT22;8062;53.882;10.642;2022-10-17T00:14:33;9.30;99.90
15926;DHT22;8062;53.882;10.642;2022-10-17T00:15:35;9.30;99.90
15926;DHT22;8062;53.882;10.642;2022-10-17T00:16:36;9.30;99.90
15926;DHT22;8062;53.882;10.642;2022-10-17T00:17:37;9.30;99.90
15926;DHT22;8062;53.882;10.642;2022-10-17T00:18:38;9.30;99.90
15926;DHT22;8062;53.882;10.642;2022-10-17T00:19:39;9.30;99.90
15926;DHT22;8062;53.882;10.642;2022-10-17T00:20:40;9.40;99.90
15926;DHT22;8062;53.882;10.642;2022-10-17T00:21:42;9.40;99.90
15926;DHT22;8062;53.882;10.642;2022-10-17T00:22:43;9.40;99.90
15926;DHT22;8062;53.882;10.642;2022-10-17T00:23:45;9.40;99.90
15926;DHT22;8062;53.882;10.642;2022-10-17T00:24:46;9.50;99.90
15926;DHT22;8062;53.882;10.642;2022-10-17T00:25:56;9.50;99.90
15926;DHT22;8062;53.882;10.642;2022-10-17T00:26:57;9.50;99.90
15926;DHT22;8062;53.882;10.642;2022-10-17T00:27:58;9.60;99.90
15926;DHT22;8062;53.882;10.642;2022-10-17T00:28:59;9.70;99.90
15926;DHT22;8062;53.882;10.642;2022-10-17T00:30:00;9.70;99.90
15926;DHT22;8062;53.882;10.642;2022-10-17T00:31:04;9.80;99.90
15926;DHT22;8062;53.882;10.642;2022-10-17T00:32:07;9.80;99.90
15926;DHT22;8062;53.882;10.642;2022-10-17T00:33:08;9.80;99.90
15926;DHT22;8062;53.882;10.642;2022-10-17T00:34:10;9.80;99.90
15926;DHT22;8062;53.882;10.642;2022-10-17T00:35:11;9.90;99.90
15926;DHT22;8062;53.882;10.642;2022-10-17T00:36:23;9.90;99.90
15926;DHT22;8062;53.882;10.642;2022-10-17T00:37:24;9.90;99.90
15926;DHT22;8062;53.882;10.642;2022-10-17T00:38:25;9.90;99.90
15926;DHT22;8062;53.882;10.642;2022-10-17T00:39:26;9.90;99.90
15926;DHT22;8062;53.882;10.642;2022-10-17T00:40:28;9.90;99.90
15926;DHT22;8062;53.882;10.642;2022-10-17T00:41:31;9.90;99.90
15926;DHT22;8062;53.882;10.642;2022-10-17T00:42:33;10.00;99.90
15926;DHT22;8062;53.882;10.642;2022-10-17T00:46:19;10.00;99.90
15926;DHT22;8062;53.882;10.642;2022-10-17T00:47:21;10.00;99.90
15926;DHT22;8062;53.882;10.642;2022-10-17T00:48:23;10.00;99.90
15926;DHT22;8062;53.882;10.642;2022-10-17T00:49:27;10.00;99.90
15926;DHT22;8062;53.882;10.642;2022-10-17T00:50:33;10.10;99.90
15926;DHT22;8062;53.882;10.642;2022-10-17T00:51:42;10.10;99.90
15926;DHT22;8062;53.882;10.642;2022-10-17T00:52:46;10.10;99.90
15926;DHT22;8062;53.882;10.642;2022-10-17T00:53:47;10.10;99.90
15926;DHT22;8062;53.882;10.642;2022-10-17T00:54:58;10.10;99.90
15926;DHT22;8062;53.882;10.642;2022-10-17T00:56:01;10.00;99.90
15926;DHT22;8062;53.882;10.642;2022-10-17T00:57:03;10.10;99.90
15926;DHT22;8062;53.882;10.642;2022-10-17T00:58:05;10.10;99.90
15926;DHT22;8062;53.882;10.642;2022-10-17T00:59:08;10.20;99.90
15926;DHT22;8062;53.882;10.642;2022-10-17T01:00:13;10.20;99.90
15926;DHT22;8062;53.882;10.642;2022-10-17T01:01:15;10.20;99.90
15926;DHT22;8062;53.882;10.642;2022-10-17T01:02:18;10.30;99.90
15926;DHT22;8062;53.882;10.642;2022-10-17T01:03:21;10.30;99.90
15926;DHT22;8062;53.882;10.642;2022-10-17T01:04:22;10.30;99.90
15926;DHT22;8062;53.882;10.642;2022-10-17T01:05:23;10.30;99.90
15926;DHT22;8062;53.882;10.642;2022-10-17T01:06:24;10.30;99.90
15926;DHT22;8062;53.882;10.642;2022-10-17T01:07:27;10.30;99.90
15926;DHT22;8062;53.882;10.642;2022-10-17T01:08:28;10.30;99.90
15926;DHT22;8062;53.882;10.642;2022-10-17T01:09:30;10.30;99.90
15926;DHT22;8062;53.882;10.642;2022-10-17T01:10:38;10.30;99.90
15926;DHT22;8062;53.882;10.642;2022-10-17T01:11:49;10.40;99.90
15926;DHT22;8062;53.882;10.642;2022-10-17T01:14:15;10.40;99.90
15926;DHT22;8062;53.882;10.642;2022-10-17T01:21:30;10.50;99.90
15926;DHT22;8062;53.882;10.642;2022-10-17T01:22:42;10.50;99.90
15926;DHT22;8062;53.882;10.642;2022-10-17T01:24:02;10.50;99.90
15926;DHT22;8062;53.882;10.642;2022-10-17T01:30:55;10.60;99.90
15926;DHT22;8062;53.882;10.642;2022-10-17T01:36:09;10.50;99.90
15926;DHT22;8062;53.882;10.642;2022-10-17T01:38:48;10.50;99.90
15926;DHT22;8062;53.882;10.642;2022-10-17T01:40:06;10.50;99.90
15926;DHT22;8062;53.882;10.642;2022-10-17T01:41:47;10.50;99.90
15926;DHT22;8062;53.882;10.642;2022-10-17T01:43:06;10.50;99.90
15926;DHT22;8062;53.882;10.642;2022-10-17T01:44:10;10.50;99.90
15926;DHT22;8062;53.882;10.642;2022-10-17T01:45:20;10.50;99.90
15926;DHT22;8062;53.882;10.642;2022-10-17T01:46:40;10.50;99.90
15926;DHT22;8062;53.882;10.642;2022-10-17T01:47:45;10.50;99.90
15926;DHT22;8062;53.882;10.642;2022-10-17T01:48:47;10.50;99.90
15926;DHT22;8062;53.882;10.642;2022-10-17T01:49:50;10.60;99.90
15926;DHT22;8062;53.882;10.642;2022-10-17T01:51:15;10.60;99.90
15926;DHT22;8062;53.882;10.642;2022-10-17T01:53:03;10.60;99.90
15926;DHT22;8062;53.882;10.642;2022-10-17T01:54:02;10.60;99.90
15926;DHT22;8062;53.882;10.642;2022-10-17T01:55:10;10.60;99.90
15926;DHT22;8062;53.882;10.642;2022-10-17T01:56:13;10.60;99.90
15926;DHT22;8062;53.882;10.642;2022-10-17T01:57:27;10.60;99.90
15926;DHT22;8062;53.882;10.642;2022-10-17T01:58:32;10.60;99.90
15926;DHT22;8062;53.882;10.642;2022-10-17T01:59:39;10.60;99.90
15926;DHT22;8062;53.882;10.642;2022-10-17T02:00:42;10.60;99.90
15926;DHT22;8062;53.882;10.642;2022-10-17T02:01:47;10.60;99.90
15926;DHT22;8062;53.882;10.642;2022-10-17T02:02:56;10.70;99.90
15926;DHT22;8062;53.882;10.642;2022-10-17T02:04:00;10.70;99.90
15926;DHT22;8062;53.882;10.642;2022-10-17T02:05:03;10.70;99.90
15926;DHT22;8062;53.882;10.642;2022-10-17T02:06:05;10.70;99.90
15926;DHT22;8062;53.882;10.642;2022-10-17T02:07:11;10.70;99.90
15926;DHT22;8062;53.882;10.642;2022-10-17T02:08:12;10.70;99.90
15926;DHT22;8062;53.882;10.642;2022-10-17T02:09:24;10.70;99.90
15926;DHT22;8062;53.882;10.642;2022-10-17T02:10:47;10.70;99.90
15926;DHT22;8062;53.882;10.642;2022-10-17T02:12:10;10.70;99.90
15926;DHT22;8062;53.882;10.642;2022-10-17T02:16:04;10.80;99.90
15926;DHT22;8062;53.882;10.642;2022-10-17T02:17:34;10.80;99.90
15926;DHT22;8062;53.882;10.642;2022-10-17T02:18:46;10.80;99.90
15926;DHT22;8062;53.882;10.642;2022-10-17T02:20:27;10.90;99.90
15926;DHT22;8062;53.882;10.642;2022-10-17T02:22:13;10.90;99.90
15926;DHT22;8062;53.882;10.642;2022-10-17T02:26:10;10.90;99.90
15926;DHT22;8062;53.882;10.642;2022-10-17T02:28:51;11.00;99.90
15926;DHT22;8062;53.882;10.642;2022-10-17T02:30:12;11.00;99.90
15926;DHT22;8062;53.882;10.642;2022-10-17T02:31:28;11.00;99.90
15926;DHT22;8062;53.882;10.642;2022-10-17T02:32:39;11.00;99.90
15926;DHT22;8062;53.882;10.642;2022-10-17T02:33:53;11.00;99.90
15926;DHT22;8062;53.882;10.642;2022-10-17T02:34:57;11.10;99.90
15926;DHT22;8062;53.882;10.642;2022-10-17T02:36:05;11.10;99.90
15926;DHT22;8062;53.882;10.642;2022-10-17T02:37:10;11.10;99.90
15926;DHT22;8062;53.882;10.642;2022-10-17T02:38:13;11.10;99.90
15926;DHT22;8062;53.882;10.642;2022-10-17T02:39:19;11.20;99.90
15926;DHT22;8062;53.882;10.642;2022-10-17T02:40:23;11.30;99.90
15926;DHT22;8062;53.882;10.642;2022-10-17T02:41:26;11.30;99.90
15926;DHT22;8062;53.882;10.642;2022-10-17T02:42:27;11.30;99.90
15926;DHT22;8062;53.882;10.642;2022-10-17T02:43:30;11.30;99.90
15926;DHT22;8062;53.882;10.642;2022-10-17T02:44:33;11.30;99.90
15926;DHT22;8062;53.882;10.642;2022-10-17T02:45:36;11.40;99.90
15926;DHT22;8062;53.882;10.642;2022-10-17T02:46:40;11.40;99.90
15926;DHT22;8062;53.882;10.642;2022-10-17T02:50:01;11.40;99.90
15926;DHT22;8062;53.882;10.642;2022-10-17T02:51:10;11.50;99.90
15926;DHT22;8062;53.882;10.642;2022-10-17T02:52:15;11.50;99.90
15926;DHT22;8062;53.882;10.642;2022-10-17T02:53:36;11.50;99.90
15926;DHT22;8062;53.882;10.642;2022-10-17T02:54:45;11.50;99.90
15926;DHT22;8062;53.882;10.642;2022-10-17T02:55:52;11.50;99.90
15926;DHT22;8062;53.882;10.642;2022-10-17T02:57:01;11.60;99.90
15926;DHT22;8062;53.882;10.642;2022-10-17T02:58:13;11.60;99.90
15926;DHT22;8062;53.882;10.642;2022-10-17T02:59:20;11.70;99.90
15926;DHT22;8062;53.882;10.642;2022-10-17T03:00:23;11.70;99.90
15926;DHT22;8062;53.882;10.642;2022-10-17T03:01:25;11.70;99.90
15926;DHT22;8062;53.882;10.642;2022-10-17T03:02:27;11.80;99.90
15926;DHT22;8062;53.882;10.642;2022-10-17T03:03:31;11.80;99.90
15926;DHT22;8062;53.882;10.642;2022-10-17T03:04:36;11.90;99.90
15926;DHT22;8062;53.882;10.642;2022-10-17T03:05:37;11.80;99.90
15926;DHT22;8062;53.882;10.642;2022-10-17T03:06:40;11.90;99.90
15926;DHT22;8062;53.882;10.642;2022-10-17T03:07:41;11.90;99.90
15926;DHT22;8062;53.882;10.642;2022-10-17T03:08:43;11.90;99.90
15926;DHT22;8062;53.882;10.642;2022-10-17T03:09:44;12.00;99.90
15926;DHT22;8062;53.882;10.642;2022-10-17T03:10:45;12.00;99.90
15926;DHT22;8062;53.882;10.642;2022-10-17T03:11:46;12.00;99.90
15926;DHT22;8062;53.882;10.642;2022-10-17T03:12:47;12.00;99.90
15926;DHT22;8062;53.882;10.642;2022-10-17T03:13:48;12.00;99.90
15926;DHT22;8062;53.882;10.642;2022-10-17T03:14:50;12.00;99.90
15926;DHT22;8062;53.882;10.642;2022-10-17T03:15:52;12.00;99.90
15926;DHT22;8062;53.882;10.642;2022-10-17T03:16:53;12.00;99.90
15926;DHT22;8062;53.882;10.642;2022-10-17T03:17:54;12.10;99.90
15926;DHT22;8062;53.882;10.642;2022-10-17T03:18:56;12.10;99.90
15926;DHT22;8062;53.882;10.642;2022-10-17T03:19:57;12.10;99.90
15926;DHT22;8062;53.882;10.642;2022-10-17T03:20:58;12.10;99.90
15926;DHT22;8062;53.882;10.642;2022-10-17T03:21:59;12.10;99.90
15926;DHT22;8062;53.882;10.642;2022-10-17T03:23:00;12.10;99.90
15926;DHT22;8062;53.882;10.642;2022-10-17T03:24:03;12.10;99.90
15926;DHT22;8062;53.882;10.642;2022-10-17T03:25:04;12.20;99.90
15926;DHT22;8062;53.882;10.642;2022-10-17T03:26:09;12.10;99.90
15926;DHT22;8062;53.882;10.642;2022-10-17T03:27:11;12.10;99.90
15926;DHT22;8062;53.882;10.642;2022-10-17T03:28:12;12.10;99.90
15926;DHT22;8062;53.882;10.642;2022-10-17T03:29:13;12.10;99.90
15926;DHT22;8062;53.882;10.642;2022-10-17T03:30:15;12.10;99.90
15926;DHT22;8062;53.882;10.642;2022-10-17T03:31:17;12.10;99.90
15926;DHT22;8062;53.882;10.642;2022-10-17T03:32:19;12.10;99.90
15926;DHT22;8062;53.882;10.642;2022-10-17T03:33:20;12.10;99.90
15926;DHT22;8062;53.882;10.642;2022-10-17T03:34:21;12.20;99.90
15926;DHT22;8062;53.882;10.642;2022-10-17T03:35:23;12.20;99.90
15926;DHT22;8062;53.882;10.642;2022-10-17T03:36:24;12.20;99.90
15926;DHT22;8062;53.882;10.642;2022-10-17T03:37:25;12.20;99.90
15926;DHT22;8062;53.882;10.642;2022-10-17T03:38:26;12.20;99.90
15926;DHT22;8062;53.882;10.642;2022-10-17T03:39:28;12.20;99.90
15926;DHT22;8062;53.882;10.642;2022-10-17T03:40:29;12.20;99.90
15926;DHT22;8062;53.882;10.642;2022-10-17T03:41:30;12.30;99.90
15926;DHT22;8062;53.882;10.642;2022-10-17T03:42:31;12.30;99.90
15926;DHT22;8062;53.882;10.642;2022-10-17T03:43:32;12.30;99.90
15926;DHT22;8062;53.882;10.642;2022-10-17T03:44:33;12.40;99.90
15926;DHT22;8062;53.882;10.642;2022-10-17T03:45:34;12.40;99.90
15926;DHT22;8062;53.882;10.642;2022-10-17T03:46:36;12.50;99.90
15926;DHT22;8062;53.882;10.642;2022-10-17T03:47:38;12.40;99.90
15926;DHT22;8062;53.882;10.642;2022-10-17T03:48:39;12.50;99.90
15926;DHT22;8062;53.882;10.642;2022-10-17T03:49:41;12.50;99.90
15926;DHT22;8062;53.882;10.642;2022-10-17T03:50:42;12.50;99.90
15926;DHT22;8062;53.882;10.642;2022-10-17T03:51:43;12.60;99.90
15926;DHT22;8062;53.882;10.642;2022-10-17T03:52:47;12.50;99.90
15926;DHT22;8062;53.882;10.642;2022-10-17T03:53:49;12.60;99.90
15926;DHT22;8062;53.882;10.642;2022-10-17T03:54:50;12.60;99.90
15926;DHT22;8062;53.882;10.642;2022-10-17T03:55:52;12.60;99.90
15926;DHT22;8062;53.882;10.642;2022-10-17T03:56:53;12.60;99.90
15926;DHT22;8062;53.882;10.642;2022-10-17T03:57:54;12.60;99.90
15926;DHT22;8062;53.882;10.642;2022-10-17T03:58:57;12.60;99.90
15926;DHT22;8062;53.882;10.642;2022-10-17T03:59:59;12.50;99.90
15926;DHT22;8062;53.882;10.642;2022-10-17T04:01:04;12.50;99.90
15926;DHT22;8062;53.882;10.642;2022-10-17T04:02:05;12.50;99.90
15926;DHT22;8062;53.882;10.642;2022-10-17T04:03:06;12.60;99.90
15926;DHT22;8062;53.882;10.642;2022-10-17T04:04:07;12.50;99.90
15926;DHT22;8062;53.882;10.642;2022-10-17T04:05:10;12.60;99.90
15926;DHT22;8062;53.882;10.642;2022-10-17T04:06:11;12.50;99.90
15926;DHT22;8062;53.882;10.642;2022-10-17T04:07:13;12.50;99.90
15926;DHT22;8062;53.882;10.642;2022-10-17T04:08:17;12.50;99.90
15926;DHT22;8062;53.882;10.642;2022-10-17T04:09:41;12.50;99.90
15926;DHT22;8062;53.882;10.642;2022-10-17T04:10:46;12.60;99.90
15926;DHT22;8062;53.882;10.642;2022-10-17T04:11:47;12.60;99.90
15926;DHT22;8062;53.882;10.642;2022-10-17T04:12:48;12.60;99.90
15926;DHT22;8062;53.882;10.642;2022-10-17T04:13:54;12.60;99.90
15926;DHT22;8062;53.882;10.642;2022-10-17T04:14:55;12.60;99.90
15926;DHT22;8062;53.882;10.642;2022-10-17T04:16:05;12.50;99.90
15926;DHT22;8062;53.882;10.642;2022-10-17T04:17:06;12.50;99.90
15926;DHT22;8062;53.882;10.642;2022-10-17T04:18:09;12.50;99.90
15926;DHT22;8062;53.882;10.642;2022-10-17T04:19:11;12.60;99.90
15926;DHT22;8062;53.882;10.642;2022-10-17T04:20:16;12.60;99.90
15926;DHT22;8062;53.882;10.642;2022-10-17T04:21:17;12.60;99.90
15926;DHT22;8062;53.882;10.642;2022-10-17T04:22:18;12.70;99.90
15926;DHT22;8062;53.882;10.642;2022-10-17T04:23:20;12.60;99.90
15926;DHT22;8062;53.882;10.642;2022-10-17T04:24:23;12.60;99.90
15926;DHT22;8062;53.882;10.642;2022-10-17T04:25:45;12.60;99.90
15926;DHT22;8062;53.882;10.642;2022-10-17T04:26:48;12.60;99.90
15926;DHT22;8062;53.882;10.642;2022-10-17T04:27:50;12.70;99.90
15926;DHT22;8062;53.882;10.642;2022-10-17T04:28:51;12.70;99.90
15926;DHT22;8062;53.882;10.642;2022-10-17T04:29:52;12.70;99.90
15926;DHT22;8062;53.882;10.642;2022-10-17T04:31:00;12.70;99.90
15926;DHT22;8062;53.882;10.642;2022-10-17T04:32:06;12.60;99.90
15926;DHT22;8062;53.882;10.642;2022-10-17T04:33:14;12.60;99.90
15926;DHT22;8062;53.882;10.642;2022-10-17T04:34:15;12.60;99.90
15926;DHT22;8062;53.882;10.642;2022-10-17T04:35:16;12.50;99.90
15926;DHT22;8062;53.882;10.642;2022-10-17T04:36:22;12.60;99.90
15926;DHT22;8062;53.882;10.642;2022-10-17T04:37:23;12.50;99.90
15926;DHT22;8062;53.882;10.642;2022-10-17T04:38:28;12.40;99.90
15926;DHT22;8062;53.882;10.642;2022-10-17T04:39:29;12.40;99.90
15926;DHT22;8062;53.882;10.642;2022-10-17T04:40:30;12.40;99.90
15926;DHT22;8062;53.882;10.642;2022-10-17T04:41:31;12.40;99.90
15926;DHT22;8062;53.882;10.642;2022-10-17T04:42:32;12.40;99.90
15926;DHT22;8062;53.882;10.642;2022-10-17T04:43:35;12.40;99.90
15926;DHT22;8062;53.882;10.642;2022-10-17T04:44:37;12.40;99.90
15926;DHT22;8062;53.882;10.642;2022-10-17T04:45:38;12.30;99.90
15926;DHT22;8062;53.882;10.642;2022-10-17T04:46:40;12.30;99.90
15926;DHT22;8062;53.882;10.642;2022-10-17T04:47:41;12.30;99.90
15926;DHT22;8062;53.882;10.642;2022-10-17T04:48:42;12.20;99.90
15926;DHT22;8062;53.882;10.642;2022-10-17T04:49:44;12.20;99.90
15926;DHT22;8062;53.882;10.642;2022-10-17T04:50:56;12.20;99.90
15926;DHT22;8062;53.882;10.642;2022-10-17T04:52:07;12.20;99.90
15926;DHT22;8062;53.882;10.642;2022-10-17T04:53:19;12.20;99.90
15926;DHT22;8062;53.882;10.642;2022-10-17T04:54:20;12.10;99.90
15926;DHT22;8062;53.882;10.642;2022-10-17T04:55:26;12.20;99.90
15926;DHT22;8062;53.882;10.642;2022-10-17T04:56:27;12.20;99.90
15926;DHT22;8062;53.882;10.642;2022-10-17T04:57:29;12.10;99.90
15926;DHT22;8062;53.882;10.642;2022-10-17T04:58:41;12.10;99.90
15926;DHT22;8062;53.882;10.642;2022-10-17T04:59:42;12.00;99.90
15926;DHT22;8062;53.882;10.642;2022-10-17T05:00:52;12.00;99.90
15926;DHT22;8062;53.882;10.642;2022-10-17T05:02:00;12.00;99.90
15926;DHT22;8062;53.882;10.642;2022-10-17T05:03:03;12.00;99.90
15926;DHT22;8062;53.882;10.642;2022-10-17T05:04:04;12.10;99.90
15926;DHT22;8062;53.882;10.642;2022-10-17T05:05:06;12.00;99.90
15926;DHT22;8062;53.882;10.642;2022-10-17T05:06:11;12.00;99.90
15926;DHT22;8062;53.882;10.642;2022-10-17T05:07:12;11.90;99.90
15926;DHT22;8062;53.882;10.642;2022-10-17T05:08:19;11.90;99.90
15926;DHT22;8062;53.882;10.642;2022-10-17T05:09:20;11.90;99.90
15926;DHT22;8062;53.882;10.642;2022-10-17T05:10:21;11.80;99.90
15926;DHT22;8062;53.882;10.642;2022-10-17T05:11:27;11.80;99.90
15926;DHT22;8062;53.882;10.642;2022-10-17T05:12:28;11.80;99.90
15926;DHT22;8062;53.882;10.642;2022-10-17T05:13:30;11.80;99.90
15926;DHT22;8062;53.882;10.642;2022-10-17T05:14:31;11.70;99.90
15926;DHT22;8062;53.882;10.642;2022-10-17T05:15:32;11.70;99.90
15926;DHT22;8062;53.882;10.642;2022-10-17T05:16:33;11.60;99.90
15926;DHT22;8062;53.882;10.642;2022-10-17T05:17:35;11.60;99.90
15926;DHT22;8062;53.882;10.642;2022-10-17T05:18:36;11.60;99.90
15926;DHT22;8062;53.882;10.642;2022-10-17T05:19:37;11.60;99.90
15926;DHT22;8062;53.882;10.642;2022-10-17T05:20:40;11.50;99.90
15926;DHT22;8062;53.882;10.642;2022-10-17T05:21:41;11.50;99.90
15926;DHT22;8062;53.882;10.642;2022-10-17T05:22:42;11.50;99.90
15926;DHT22;8062;53.882;10.642;2022-10-17T05:23:44;11.50;99.90
15926;DHT22;8062;53.882;10.642;2022-10-17T05:24:45;11.50;99.90
15926;DHT22;8062;53.882;10.642;2022-10-17T05:25:53;11.50;99.90
15926;DHT22;8062;53.882;10.642;2022-10-17T05:26:54;11.40;99.90
15926;DHT22;8062;53.882;10.642;2022-10-17T05:27:55;11.50;99.90
15926;DHT22;8062;53.882;10.642;2022-10-17T05:28:56;11.60;99.90
15926;DHT22;8062;53.882;10.642;2022-10-17T05:30:00;11.60;99.90
15926;DHT22;8062;53.882;10.642;2022-10-17T05:31:05;11.70;99.90
15926;DHT22;8062;53.882;10.642;2022-10-17T05:32:06;11.60;99.90
15926;DHT22;8062;53.882;10.642;2022-10-17T05:33:08;11.60;99.90
15926;DHT22;8062;53.882;10.642;2022-10-17T05:34:09;11.60;99.90
15926;DHT22;8062;53.882;10.642;2022-10-17T05:35:11;11.60;99.90
15926;DHT22;8062;53.882;10.642;2022-10-17T05:36:13;11.50;99.90
15926;DHT22;8062;53.882;10.642;2022-10-17T05:37:14;11.50;99.90
15926;DHT22;8062;53.882;10.642;2022-10-17T05:38:20;11.50;99.90
15926;DHT22;8062;53.882;10.642;2022-10-17T05:39:21;11.50;99.90
15926;DHT22;8062;53.882;10.642;2022-10-17T05:40:24;11.40;99.90
15926;DHT22;8062;53.882;10.642;2022-10-17T05:41:27;11.40;99.90
15926;DHT22;8062;53.882;10.642;2022-10-17T05:42:28;11.30;99.90
15926;DHT22;8062;53.882;10.642;2022-10-17T05:43:31;11.40;99.90
15926;DHT22;8062;53.882;10.642;2022-10-17T05:44:35;11.40;99.90
15926;DHT22;8062;53.882;10.642;2022-10-17T05:45:37;11.30;99.90
15926;DHT22;8062;53.882;10.642;2022-10-17T05:46:39;11.30;99.90
15926;DHT22;8062;53.882;10.642;2022-10-17T05:47:40;11.30;99.90
15926;DHT22;8062;53.882;10.642;2022-10-17T05:48:41;11.30;99.90
15926;DHT22;8062;53.882;10.642;2022-10-17T05:49:43;11.20;99.90
15926;DHT22;8062;53.882;10.642;2022-10-17T05:50:44;11.20;99.90
15926;DHT22;8062;53.882;10.642;2022-10-17T05:51:49;11.10;99.90
15926;DHT22;8062;53.882;10.642;2022-10-17T05:52:54;11.20;99.90
15926;DHT22;8062;53.882;10.642;2022-10-17T05:53:56;11.20;99.90
15926;DHT22;8062;53.882;10.642;2022-10-17T05:55:01;11.20;99.90
15926;DHT22;8062;53.882;10.642;2022-10-17T05:56:05;11.20;99.90
15926;DHT22;8062;53.882;10.642;2022-10-17T05:57:07;11.20;99.90
15926;DHT22;8062;53.882;10.642;2022-10-17T05:58:09;11.10;99.90
15926;DHT22;8062;53.882;10.642;2022-10-17T05:59:16;11.10;99.90
15926;DHT22;8062;53.882;10.642;2022-10-17T06:00:26;11.10;99.90
15926;DHT22;8062;53.882;10.642;2022-10-17T06:01:31;11.10;99.90
15926;DHT22;8062;53.882;10.642;2022-10-17T06:02:32;11.10;99.90
15926;DHT22;8062;53.882;10.642;2022-10-17T06:03:33;11.10;99.90
15926;DHT22;8062;53.882;10.642;2022-10-17T06:04:38;11.00;99.90
15926;DHT22;8062;53.882;10.642;2022-10-17T06:05:45;11.00;99.90
15926;DHT22;8062;53.882;10.642;2022-10-17T06:06:47;11.00;99.90
15926;DHT22;8062;53.882;10.642;2022-10-17T06:07:48;11.00;99.90
15926;DHT22;8062;53.882;10.642;2022-10-17T06:08:52;11.00;99.90
15926;DHT22;8062;53.882;10.642;2022-10-17T06:09:58;11.00;99.90
15926;DHT22;8062;53.882;10.642;2022-10-17T06:10:59;10.90;99.90
15926;DHT22;8062;53.882;10.642;2022-10-17T06:12:01;10.90;99.90
15926;DHT22;8062;53.882;10.642;2022-10-17T06:13:03;10.90;99.90
15926;DHT22;8062;53.882;10.642;2022-10-17T06:14:04;10.90;99.90
15926;DHT22;8062;53.882;10.642;2022-10-17T06:15:06;10.80;99.90
15926;DHT22;8062;53.882;10.642;2022-10-17T06:16:08;10.80;99.90
15926;DHT22;8062;53.882;10.642;2022-10-17T06:17:09;10.80;99.90
15926;DHT22;8062;53.882;10.642;2022-10-17T06:18:11;10.90;99.90
15926;DHT22;8062;53.882;10.642;2022-10-17T06:19:12;10.90;99.90
15926;DHT22;8062;53.882;10.642;2022-10-17T06:20:13;10.90;99.90
15926;DHT22;8062;53.882;10.642;2022-10-17T06:21:17;11.00;99.90
15926;DHT22;8062;53.882;10.642;2022-10-17T06:22:22;11.00;99.90
15926;DHT22;8062;53.882;10.642;2022-10-17T06:23:23;11.00;99.90
15926;DHT22;8062;53.882;10.642;2022-10-17T06:24:36;11.00;99.90
15926;DHT22;8062;53.882;10.642;2022-10-17T06:25:40;10.90;99.90
15926;DHT22;8062;53.882;10.642;2022-10-17T06:26:42;10.90;99.90
15926;DHT22;8062;53.882;10.642;2022-10-17T06:27:44;10.90;99.90
15926;DHT22;8062;53.882;10.642;2022-10-17T06:28:46;10.90;99.90
15926;DHT22;8062;53.882;10.642;2022-10-17T06:29:47;10.90;99.90
15926;DHT22;8062;53.882;10.642;2022-10-17T06:30:48;11.00;99.90
15926;DHT22;8062;53.882;10.642;2022-10-17T06:31:49;11.00;99.90
15926;DHT22;8062;53.882;10.642;2022-10-17T06:32:52;11.10;99.90
15926;DHT22;8062;53.882;10.642;2022-10-17T06:33:54;11.10;99.90
15926;DHT22;8062;53.882;10.642;2022-10-17T06:34:55;11.10;99.90
15926;DHT22;8062;53.882;10.642;2022-10-17T06:35:56;11.20;99.90
15926;DHT22;8062;53.882;10.642;2022-10-17T06:36:58;11.20;99.90
15926;DHT22;8062;53.882;10.642;2022-10-17T06:37:59;11.20;99.90
15926;DHT22;8062;53.882;10.642;2022-10-17T06:39:00;11.30;99.90
15926;DHT22;8062;53.882;10.642;2022-10-17T06:40:10;11.40;99.90
15926;DHT22;8062;53.882;10.642;2022-10-17T06:41:14;11.40;99.90
15926;DHT22;8062;53.882;10.642;2022-10-17T06:42:15;11.50;99.90
15926;DHT22;8062;53.882;10.642;2022-10-17T06:43:44;11.60;99.90
15926;DHT22;8062;53.882;10.642;2022-10-17T06:45:05;11.60;99.90
15926;DHT22;8062;53.882;10.642;2022-10-17T06:46:19;11.80;99.90
15926;DHT22;8062;53.882;10.642;2022-10-17T06:47:32;11.90;99.90
15926;DHT22;8062;53.882;10.642;2022-10-17T06:48:39;11.90;99.90
15926;DHT22;8062;53.882;10.642;2022-10-17T06:49:51;12.00;99.90
15926;DHT22;8062;53.882;10.642;2022-10-17T06:51:02;12.10;99.90
15926;DHT22;8062;53.882;10.642;2022-10-17T06:52:04;12.20;99.90
15926;DHT22;8062;53.882;10.642;2022-10-17T06:53:14;12.30;99.90
15926;DHT22;8062;53.882;10.642;2022-10-17T06:54:23;12.40;99.90
15926;DHT22;8062;53.882;10.642;2022-10-17T06:55:51;12.40;99.90
15926;DHT22;8062;53.882;10.642;2022-10-17T06:57:05;12.50;99.90
15926;DHT22;8062;53.882;10.642;2022-10-17T06:58:21;12.60;99.90
15926;DHT22;8062;53.882;10.642;2022-10-17T06:59:40;12.70;99.90
15926;DHT22;8062;53.882;10.642;2022-10-17T07:00:48;12.70;99.90
15926;DHT22;8062;53.882;10.642;2022-10-17T07:01:50;12.90;99.90
15926;DHT22;8062;53.882;10.642;2022-10-17T07:02:51;12.90;99.90
15926;DHT22;8062;53.882;10.642;2022-10-17T07:03:52;12.90;99.90
15926;DHT22;8062;53.882;10.642;2022-10-17T07:04:54;13.00;99.90
15926;DHT22;8062;53.882;10.642;2022-10-17T07:05:56;13.00;99.90
15926;DHT22;8062;53.882;10.642;2022-10-17T07:06:58;13.00;99.90
15926;DHT22;8062;53.882;10.642;2022-10-17T07:08:05;13.10;99.90
15926;DHT22;8062;53.882;10.642;2022-10-17T07:09:06;13.20;99.90
15926;DHT22;8062;53.882;10.642;2022-10-17T07:10:10;13.30;99.90
15926;DHT22;8062;53.882;10.642;2022-10-17T07:11:16;13.40;99.90
15926;DHT22;8062;53.882;10.642;2022-10-17T07:12:17;13.50;99.90
15926;DHT22;8062;53.882;10.642;2022-10-17T07:13:20;13.50;99.90
15926;DHT22;8062;53.882;10.642;2022-10-17T07:14:21;13.60;99.90
15926;DHT22;8062;53.882;10.642;2022-10-17T07:15:22;13.60;99.90
15926;DHT22;8062;53.882;10.642;2022-10-17T07:16:23;13.60;99.90
15926;DHT22;8062;53.882;10.642;2022-10-17T07:17:33;13.60;99.90
15926;DHT22;8062;53.882;10.642;2022-10-17T07:18:34;13.70;99.90
15926;DHT22;8062;53.882;10.642;2022-10-17T07:19:35;13.80;99.90